Terminal Aerodrome Forecast
Issued by NWS Sioux Falls, SD

Home | Current Version | Previous Version | Text Only | Print | Product List | Glossary Off
Versions: 1 2 3 4 5 6 7 8 9 10 11 12 13 14 15 16 17 18 19 20 21 22 23 24 25 26 27 28 29 30 31 32 33

857
FTUS43 KFSD 212038 AAA
TAFSUX
TAF AMD
KSUX 212038Z 2121/2218 16012G20KT P6SM FEW250
     FM220100 15011KT P6SM BKN250
     FM220300 14007KT P6SM SCT250
     FM221000 14009KT P6SM FEW250 WS020/17035KT
     FM221300 14010KT P6SM SCT200
     FM221600 16015G23KT P6SM BKN100=

USA.gov is the U.S. government's official web portal to all federal, state and local government web resources and services.